Leesburg, FL

9:04 AM EST on December 06, 2016 (GMT -0500)
Cypress Creek | | Change Station

Elev 82 ft 28.77 °N, 81.88 °W | Updated 3 seconds ago

Overcast
Overcast
78.1 °F
Feels Like 79 °F
N
3.6
Wind Variable Wind from South
Gusts 4.9 mph

Today
High -- | Low -- °F
--% Chance of Precip.
Yesterday
High -- | Low -- °F
Precip. -- in
Pressure 29.88 in
Visibility 10.0 miles
Clouds Mostly Cloudy 1700 ft
Overcast 2100 ft
Heat Index 79 °F
Dew Point 52 °F
Humidity 41%
Rainfall 0.00 in
Snow Depth Not available.
7:07 AM 5:30 PM
Waxing Crescent, 42% visible
METAR KLEE 061353Z 21011KT 10SM BKN017 OVC021 25/22 A2988 RMK AO2 SLP116 T02500217
Pressure 29.88 in
Visibility 10.0 miles
Clouds Mostly Cloudy 1700 ft
Overcast 2100 ft
Heat Index 79 °F
Dew Point 52 °F
Humidity 41%
Rainfall 0.00 in
Snow Depth Not available.
7:07 AM 5:30 PM
Waxing Crescent, 42% visible
METAR KLEE 061353Z 21011KT 10SM BKN017 OVC021 25/22 A2988 RMK AO2 SLP116 T02500217

10-Day Weather Forecast

Almanac

Astronomy

Dec. 06, 2016 Rise Set
Actual Time
Civil Twilight
Nautical Twilight
Astronomical Twilight
Moon
Length of Visible Light
Length of Day
Tomorrow will be .
, % of the Moon is Illuminated

Today's Extremes

State Highs State Lows

Community

WunderPhotos

Upload Photos

1,955,949 photos uploaded!

WunderBlog® & News

Nearby

Air Quality

  Air Quality AQ Index Pollutant
Not available.

Snow Depth

Station Depth Elevation

Earthquake Activity

City Distance Mag. Time & Date
Minimum magnitude displayed is 2.5.

Coastal Water Temperatures

Place Temperature

Stations

Nearby Weather Stations

Station Location Temp. Windchill Dew Point Humidity Wind Precip. Elev Updated Type
                   

Watches & Warnings

There are currently no watches in effect.